Aviation Digital Data Service (ADDS)

Output produced by METARs form (0051 UTC 21 November 2017)
found at http://www.aviationweather.gov/adds/metars/
 
LTAF 210020Z 07008KT 4800 BR SCT035 BKN100 14/12 Q1004 TEMPO -TSRA
TAF LTAF 202240Z 2100/2124 03009KT 4000 -SHRA BR SCT035 BKN100 
     TEMPO 2100/2103 -TSRA SCT020CB BKN030 
     BECMG 2106/2108 9999 NSW
       
LTBJ 210020Z 06004KT 020V100 9999 FEW030 SCT100 05/02 Q1015 BECMG 36018G30KT
TAF LTBJ 202240Z 2100/2124 36018G30KT 9999 SCT030 BKN100 
     BECMG 2100/2103 CAVOK 
     BECMG 2103/2106 36012KT 
     BECMG 2106/2109 FEW030 
     BECMG 2116/2118 VRB02KT CAVOK
       
TAF LTAE 202240Z 2100/2109 28008KT 9999 -RA SCT010 BKN030 OVC090 
     TEMPO 2103/2107 -RASN
       
LTBY 202350Z 29015KT 9999 BKN030 BKN090 02/01 Q1007
TAF LTBY 202240Z 2100/2109 32012KT 9999 -RASN SCT010 BKN025 BKN090
       
LTAI 210020Z 30021G32KT 9999 FEW020CB SCT030 14/00 Q1004 NOSIG RMK RWY18C 29018KT RWY36R 30021KT RWY18L 30019KT
TAF LTAI 202240Z 2100/2124 34010G25KT 9999 FEW020CB 
     BECMG 2100/2104 34020G35KT FEW030 
     BECMG 2104/2108 CAVOK
       
LTBA 210020Z 31011KT 8000 SCT017 BKN030 07/04 Q1014 RESHRA NOSIG RMK RWY17L 31009KT 280V360 RWY05 29010KT RWY23 32010KT 290V350
TAF LTBA 202240Z 2100/2206 32013KT 7000 -SHRA SCT012 BKN030 
     PROB30 2103/2106 4000 BR BKN012 BKN025 
     BECMG 2106/2110 SCT035 
     BECMG 2110/2114 VRB02KT 
     BECMG 2120/2124 24012KT
       
LTBF 202350Z 32011KT 280V350 9999 FEW020 SCT035 06/02 Q1015 NOSIG
TAF LTBF 202240Z 2100/2109 01012KT 9999 FEW015 SCT035
       
TAF LTBG 202240Z 2100/2109 35013KT 9999 FEW015 SCT035 BKN100
       
LTCJ 210020Z 16006KT 9999 SCT040 BKN100 14/09 Q1011 RMK RWY20 VRB02KT
TAF LTCJ 202240Z 2100/2124 16008KT 9999 FEW040 BKN100 
     TEMPO 2109/2113 -TSRA FEW025CB BKN035 
     PROB40 
     TEMPO 2113/2116 -TSRA FEW025CB BKN035
       
LTBH 202250Z 04003KT CAVOK 04/02 Q1016
TAF LTBH 202240Z 2100/2109 03008KT 9999 SCT030
       
LTAY 202350Z 28015KT 7000 FEW015 BKN020 BKN090 03/02 Q1008 RESHRA R242///46
TAF LTAY 202240Z 2100/2109 30018G30KT 7000 -SHRA SCT010 BKN030 BKN100 
     BECMG 2100/2103 -SN
       
LTFH 202350Z 14001KT 9999 FEW033 BKN100 11/09 Q1001 NOSIG
TAF LTFH 202240Z 2100/2109 29009KT 9999 SCT033 BKN100 
     TEMPO 2103/2106 -SHRA FEW010 BKN028 BKN080
       
LTBL 202012Z 36007KT 9999 SCT040 BKN100 07/04 Q1012 RESHRA NOSIG RMK RWY17 03011KT
TAF LTBL 202240Z 2100/2109 35009KT 9999 FEW040 SCT100 
     BECMG 2101/2103 CAVOK 
     BECMG 2108/2109 FEW040
       
LTBU 210020Z 29014KT 9999 SCT035 BKN090 04/02 Q1014 RMK RWY23 31017KT
TAF LTBU 202240Z 2100/2124 28013KT 9999 SCT030 BKN090 
     TEMPO 2100/2103 -SHRA SCT012 BKN025 
     PROB30 2103/2106 3200 BR SCT015 BKN025 
     BECMG 2108/2112 VRB02KT 
     BECMG 2118/2121 21012KT
       
LTBS 210020Z 30004KT 250V350 9999 SCT030 SCT100 10/03 Q1010 NOSIG RMK RWY19 31010KT
TAF LTBS 202240Z 2100/2124 35014KT 9999 SCT030
       
LTCC 210020Z VRB02KT 9999 SCT040 BKN100 10/08 Q1011 NOSIG RMK RWY16 VRB01KT
TAF LTCC 202240Z 2100/2124 16008KT 9999 FEW040 BKN100 
     TEMPO 2106/2110 -TSRA FEW025CB BKN035 
     PROB40 
     TEMPO 2110/2114 -TSRA FEW025CB BKN035
       
LTFD 202050Z 11007KT 070V140 9999 SCT030 BKN100 07/01 Q1015
TAF LTFD 202240Z 2100/2109 08015KT 9999 FEW035 SCT100
       
LTCA 202350Z VRB02KT 9999 -SHRA BKN030 BKN090 10/07 Q1010 NOSIG
TAF LTCA 202240Z 2100/2109 12009KT 9999 -SHRA BKN030 BKN090
       
LTAT 210020Z 09005KT 8000 FEW022 SCT035 BKN090 11/07 Q1008 BECMG TL0120 3500 BR
TAF LTAT 202240Z 2100/2124 VRB02KT 3500 -RA BR BKN033 OVC090 
     BECMG 2110/2112 28014KT 9999 NSW
       
LTAU 210038Z 13015G27KT 090V160 9999 SCT040 BKN100 10/02 Q1001 NOSIG RMK RWY07 11012KT
TAF LTAU 202240Z 2100/2124 15015G25KT 9999 SCT040 BKN100 
     BECMG 2101/2104 25013KT 4000 RASN SCT010 BKN025 
     PROB40 2104/2107 1200 +SN 
     BECMG 2106/2108 2500 SN 
     PROB40 
     TEMPO 2109/2113 25018G30KT 1000 +SN BLSN 
     BECMG 2114/2117 8000 NSW 
     BECMG 2118/2121 VRB02KT BKN033
       
LTCD 210021Z 18010KT 9999 -SHRA BKN036 BKN080 07/05 Q1008 NOSIG RMK RWY29 15010KT
TAF AMD LTCD 202242Z 2022/2106 18009KT 9999 -SHRA BKN036 BKN080 
     BECMG 2101/2103 12018KT
       
LTCE 210020Z 25004KT 210V320 9999 -RA SCT030 BKN070 06/01 Q1010 NOSIG RMK RWY08R 34005KT 300V360 RWY26R 25005KT 160V330 RWY08L 35006KT
TAF LTCE 202240Z 2100/2124 06006KT 9999 SCT035 BKN070 
     TEMPO 2108/2111 -RA BKN025 BKN070 
     BECMG 2113/2115 23014KT 
     TEMPO 2115/2119 -RA BKN025 BKN070
       
LTAC 210020Z VRB02KT 9000 -RA FEW010 BKN030 BKN080 04/03 Q1002 TEMPO FM0130 34020G30KT 4000 RMK RWY21L 00000KT RWY03L 25003KT 150V290 RWY21R VRB01KT
TAF LTAC 202240Z 2100/2124 34015KT 8000 BKN030 BKN090 
     TEMPO 2100/2104 34020G30KT 4000 -RASN 
     TEMPO 2104/2108 4000 -RASN 
     PROB30 
     TEMPO 2108/2112 -RA 
     BECMG 2115/2117 VRB02KT
       
TAF LTBI 202240Z 2100/2109 32012KT 9999 -RASN SCT010 BKN025 BKN090
       
TAF COR LTAD 202240Z 2100/2109 28008KT 9999 FEW015 BKN030 OVC080 
     TEMPO 2100/2104 -RASN 
     BECMG 2104/2107 28018G30KT BKN035 BKN090
       
TAF LTAB 202240Z 2100/2109 27009KT 9999 -RA FEW015 BKN025 BKN080 
     TEMPO 2102/2106 4000 -SNRA 
     BECMG 2103/2106 28020KT
       
LTAG 210020Z 07008KT 9999 -SHRA FEW025CB BKN030 13/13 Q1005 TEMPO 5000 TSRA
TAF LTAG 202240Z 2100/2124 VRB02KT 9999 SCT035 
     TEMPO 2100/2104 VRB15G28KT 5000 TSRA FEW025CB BKN030 
     PROB40 
     TEMPO 2104/2108 5000 -TSRA FEW025CB BKN030 
     BECMG 2108/2111 36012KT 
     TEMPO 2112/2116 36015G25KT 
     BECMG 2115/2118 CAVOK 
     TEMPO 2117/2121 36015G25KT
       
LTCN 202350Z 12004KT 080V150 6000 FEW015 SCT033 BKN090 12/09 Q1009 NOSIG
TAF LTCN 202240Z 2100/2109 10009KT 6000 -SHRA FEW015 SCT030 BKN090 
     PROB40 
     TEMPO 2103/2107 3000 TSRA BR FEW020CB BKN030
       
LTAZ 210020Z 14008KT 9999 -RA BKN030 BKN080 08/05 Q1001 RMK RWY29 17005KT 130V200
TAF LTAZ 202240Z 2100/2124 14008KT 9999 -RA BKN030 BKN080 
     BECMG 2102/2104 25010KT 4000 RASN SCT015 BKN025 
     TEMPO 2104/2108 2000 SNRA 
     BECMG 2105/2107 27015G25KT 
     BECMG 2108/2111 8000 -SNRA 
     BECMG 2115/2118 27008KT SCT035
       
LTCF 202350Z 02004KT 9999 BKN030 02/02 Q1012
TAF LTCF 202240Z 2100/2109 VRB02KT 9999 BKN030 
     PROB30 
     TEMPO 2103/2106 3500 BR
       
LTAN 210007Z 24013KT 190V270 7000 -RASN BKN027 OVC080 05/03 Q1003 RERA BECMG 31009KT RMK RWY19 25008KT 220V280
TAF LTAN 202240Z 2100/2109 31009KT 9999 -RA BKN030 BKN090 
     BECMG 2100/2103 31019G30KT -SN
       
LTAP 210020Z 25012KT 9999 SCT040 BKN100 11/06 Q1000 NOSIG RMK RWY23 /////KT
TAF LTAP 202240Z 2100/2124 24012KT 9999 SCT040 BKN090 
     BECMG 2100/2102 VRB02KT -RA SCT010 BKN031 
     TEMPO 2104/2107 3500 RA SCT005 BKN025 
     BECMG 2111/2114 SCT040 BKN090 
     BECMG 2120/2123 CAVOK
       
LTFE 210020Z 34010KT 310V020 9999 FEW035 SCT100 09/01 Q1013 NOSIG RMK RWY10 03010KT 360V070
TAF LTFE 202240Z 2100/2124 VRB02KT 9999 SCT035 BKN100 
     BECMG 2100/2102 35012KT CAVOK
       
LTAJ 210020Z 09004KT 070V130 2400 BR SCT003 BKN020 OVC070 09/09 Q1009 BECMG 4000
TAF LTAJ 202240Z 2100/2124 VRB02KT 4000 -RA BR SCT007 BKN020 
     TEMPO 2100/2103 2000 
     PROB30 
     TEMPO 2103/2106 0500 FG VV002 
     BECMG 2106/2108 18012KT 6000 -SHRA SCT030 BKN080 
     TEMPO 2108/2111 20022KT 4000 SHRA BKN020 BKN080 
     BECMG 2111/2113 29012KT 
     BECMG 2115/2118 CAVOK
       
LTFJ 210020Z 36011KT 9999 -SHRA FEW013 BKN017 06/04 Q1012 NOSIG RMK RWY24 35013G24KT 310V010
TAF LTFJ 202240Z 2100/2124 33009KT 9999 BKN040 
     TEMPO 2100/2103 -SHRA FEW012 BKN025
       
TAF LTCM 201640Z 2018/2103 27015KT 9999 SCT030 BKN100 
     TEMPO 2022/2102 -SHRA BKN027 BKN080
       
LTFC 210020Z 32010KT 290V350 9999 -SHRA BKN030 BKN080 03/00 Q1007 RMK RWY23 32013KT
TAF LTFC 202240Z 2100/2124 32008KT 9999 -RASN BKN030 BKN080 
     BECMG 2100/2104 32018KT 4000 -SHSN 
     BECMG 2106/2110 9999 
     BECMG 2110/2114 SCT035 
     BECMG 2114/2118 32008KT CAVOK
       
LTBQ 202350Z 23004KT 160V260 7000 -SHRA SCT010 BKN022 BKN070 06/06 Q1012 NOSIG
TAF LTBQ 202240Z 2100/2109 30009KT 7000 -SHRA SCT010 BKN022 BKN070 
     TEMPO 2103/2107 3200 SHRA BR
       
LTCG 210020Z 15003KT 110V190 9999 FEW035 BKN100 19/06 Q1001 NOSIG RMK RWY29 VRB02KT
TAF LTCG 202240Z 2100/2124 21009KT 9999 SCT035 BKN100 
     BECMG 2107/2110 28020G32KT -SHRA SCT015 BKN028 
     TEMPO 2110/2114 28025G42KT 
     PROB40 2114/2118 3500 TSRA SCT010 SCT018CB BKN025
       
LTCI 202350Z 15013KT 9999 SCT030 BKN070 08/00 Q1013 NOSIG
TAF LTCI 202240Z 2100/2109 16010KT 9999 SCT030 BKN070
       
LTBR 210020Z 27009KT 9999 -SHRA BKN025 BKN080 05/03 Q1011 NOSIG RMK RWY07 30009KT
TAF LTBR 202240Z 2100/2124 29009KT 9999 -SHRA BKN025 BKN080 
     PROB40 2103/2107 4000 SHRA BR 
     BECMG 2111/2115 SCT035